sensor_id;sensor_type;location;lat;lon;timestamp;P1;durP1;ratioP1;P2;durP2;ratioP2
21501;SDS011;27639;48.674;9.242;2024-03-06T00:01:42;6.32;;;4.18;;
21501;SDS011;27639;48.674;9.242;2024-03-06T00:04:07;6.38;;;3.90;;
21501;SDS011;27639;48.674;9.242;2024-03-06T00:06:33;6.45;;;4.32;;
21501;SDS011;27639;48.674;9.242;2024-03-06T00:08:59;5.72;;;4.07;;
21501;SDS011;27639;48.674;9.242;2024-03-06T00:11:25;7.55;;;4.18;;
21501;SDS011;27639;48.674;9.242;2024-03-06T00:13:50;5.10;;;3.90;;
21501;SDS011;27639;48.674;9.242;2024-03-06T00:16:16;6.97;;;4.35;;
21501;SDS011;27639;48.674;9.242;2024-03-06T00:18:42;6.28;;;4.35;;
21501;SDS011;27639;48.674;9.242;2024-03-06T00:21:07;6.43;;;4.18;;
21501;SDS011;27639;48.674;9.242;2024-03-06T00:23:34;7.05;;;4.57;;
21501;SDS011;27639;48.674;9.242;2024-03-06T00:26:00;6.60;;;4.78;;
21501;SDS011;27639;48.674;9.242;2024-03-06T00:28:27;7.88;;;5.50;;
21501;SDS011;27639;48.674;9.242;2024-03-06T00:30:53;6.65;;;4.57;;
21501;SDS011;27639;48.674;9.242;2024-03-06T00:33:18;6.97;;;5.20;;
21501;SDS011;27639;48.674;9.242;2024-03-06T00:35:44;7.43;;;4.93;;
21501;SDS011;27639;48.674;9.242;2024-03-06T00:38:09;6.65;;;4.90;;
21501;SDS011;27639;48.674;9.242;2024-03-06T00:40:35;7.80;;;5.05;;
21501;SDS011;27639;48.674;9.242;2024-03-06T00:43:00;7.22;;;4.90;;
21501;SDS011;27639;48.674;9.242;2024-03-06T00:45:26;7.28;;;4.72;;
21501;SDS011;27639;48.674;9.242;2024-03-06T00:47:52;7.45;;;5.22;;
21501;SDS011;27639;48.674;9.242;2024-03-06T00:50:17;7.35;;;4.72;;
21501;SDS011;27639;48.674;9.242;2024-03-06T00:52:43;6.53;;;4.60;;
21501;SDS011;27639;48.674;9.242;2024-03-06T00:55:10;5.47;;;4.20;;
21501;SDS011;27639;48.674;9.242;2024-03-06T00:57:36;6.07;;;4.30;;
21501;SDS011;27639;48.674;9.242;2024-03-06T01:00:04;6.35;;;4.15;;
21501;SDS011;27639;48.674;9.242;2024-03-06T01:02:38;7.97;;;4.88;;
21501;SDS011;27639;48.674;9.242;2024-03-06T01:05:04;6.80;;;4.72;;
21501;SDS011;27639;48.674;9.242;2024-03-06T01:07:32;6.28;;;4.40;;
21501;SDS011;27639;48.674;9.242;2024-03-06T01:09:58;5.72;;;4.60;;
21501;SDS011;27639;48.674;9.242;2024-03-06T01:12:24;7.68;;;4.93;;
21501;SDS011;27639;48.674;9.242;2024-03-06T01:14:50;6.97;;;4.75;;
21501;SDS011;27639;48.674;9.242;2024-03-06T01:17:15;6.55;;;4.85;;
21501;SDS011;27639;48.674;9.242;2024-03-06T01:19:41;8.02;;;5.20;;
21501;SDS011;27639;48.674;9.242;2024-03-06T01:22:08;8.55;;;4.75;;
21501;SDS011;27639;48.674;9.242;2024-03-06T01:24:38;9.70;;;5.32;;
21501;SDS011;27639;48.674;9.242;2024-03-06T01:27:04;7.90;;;5.88;;
21501;SDS011;27639;48.674;9.242;2024-03-06T01:29:29;8.43;;;5.93;;
21501;SDS011;27639;48.674;9.242;2024-03-06T01:31:55;8.45;;;5.75;;
21501;SDS011;27639;48.674;9.242;2024-03-06T01:34:20;9.75;;;5.57;;
21501;SDS011;27639;48.674;9.242;2024-03-06T01:36:47;8.40;;;5.03;;
21501;SDS011;27639;48.674;9.242;2024-03-06T01:39:12;8.00;;;5.05;;
21501;SDS011;27639;48.674;9.242;2024-03-06T01:41:44;8.93;;;5.68;;
21501;SDS011;27639;48.674;9.242;2024-03-06T01:44:13;7.55;;;4.93;;
21501;SDS011;27639;48.674;9.242;2024-03-06T01:46:39;6.93;;;5.10;;
21501;SDS011;27639;48.674;9.242;2024-03-06T01:49:05;8.77;;;5.70;;
21501;SDS011;27639;48.674;9.242;2024-03-06T01:51:31;8.80;;;5.82;;
21501;SDS011;27639;48.674;9.242;2024-03-06T01:53:57;8.00;;;6.00;;
21501;SDS011;27639;48.674;9.242;2024-03-06T01:56:24;8.73;;;5.25;;
21501;SDS011;27639;48.674;9.242;2024-03-06T01:58:50;7.40;;;4.80;;
21501;SDS011;27639;48.674;9.242;2024-03-06T02:01:16;6.90;;;4.63;;
21501;SDS011;27639;48.674;9.242;2024-03-06T02:03:42;5.60;;;4.32;;
21501;SDS011;27639;48.674;9.242;2024-03-06T02:06:09;8.00;;;4.53;;
21501;SDS011;27639;48.674;9.242;2024-03-06T02:08:36;8.05;;;4.30;;
21501;SDS011;27639;48.674;9.242;2024-03-06T02:11:01;5.20;;;3.80;;
21501;SDS011;27639;48.674;9.242;2024-03-06T02:13:28;7.10;;;4.57;;
21501;SDS011;27639;48.674;9.242;2024-03-06T02:15:55;6.28;;;4.07;;
21501;SDS011;27639;48.674;9.242;2024-03-06T02:18:20;6.18;;;4.13;;
21501;SDS011;27639;48.674;9.242;2024-03-06T02:20:46;6.90;;;4.43;;
21501;SDS011;27639;48.674;9.242;2024-03-06T02:23:12;6.57;;;4.53;;
21501;SDS011;27639;48.674;9.242;2024-03-06T02:25:39;6.05;;;4.45;;
21501;SDS011;27639;48.674;9.242;2024-03-06T02:28:05;6.03;;;4.45;;
21501;SDS011;27639;48.674;9.242;2024-03-06T02:30:31;7.35;;;4.45;;
21501;SDS011;27639;48.674;9.242;2024-03-06T02:33:01;6.15;;;3.97;;
21501;SDS011;27639;48.674;9.242;2024-03-06T02:35:34;6.20;;;4.57;;
21501;SDS011;27639;48.674;9.242;2024-03-06T02:38:04;6.82;;;4.82;;
21501;SDS011;27639;48.674;9.242;2024-03-06T02:40:30;7.47;;;5.10;;
21501;SDS011;27639;48.674;9.242;2024-03-06T02:42:56;6.28;;;4.90;;
21501;SDS011;27639;48.674;9.242;2024-03-06T02:45:22;7.32;;;5.10;;
21501;SDS011;27639;48.674;9.242;2024-03-06T02:47:48;7.82;;;5.38;;
21501;SDS011;27639;48.674;9.242;2024-03-06T02:50:13;8.18;;;5.47;;
21501;SDS011;27639;48.674;9.242;2024-03-06T02:52:40;7.65;;;5.63;;
21501;SDS011;27639;48.674;9.242;2024-03-06T02:55:06;8.40;;;5.93;;
21501;SDS011;27639;48.674;9.242;2024-03-06T02:57:32;8.82;;;5.43;;
21501;SDS011;27639;48.674;9.242;2024-03-06T02:59:57;7.72;;;5.95;;
21501;SDS011;27639;48.674;9.242;2024-03-06T03:02:23;8.20;;;5.50;;
21501;SDS011;27639;48.674;9.242;2024-03-06T03:04:49;8.00;;;5.50;;
21501;SDS011;27639;48.674;9.242;2024-03-06T03:07:15;7.57;;;5.32;;
21501;SDS011;27639;48.674;9.242;2024-03-06T03:09:41;7.93;;;5.78;;
21501;SDS011;27639;48.674;9.242;2024-03-06T03:12:06;8.45;;;5.85;;
21501;SDS011;27639;48.674;9.242;2024-03-06T03:14:32;8.30;;;5.40;;
21501;SDS011;27639;48.674;9.242;2024-03-06T03:16:59;10.85;;;5.43;;
21501;SDS011;27639;48.674;9.242;2024-03-06T03:19:25;7.65;;;5.50;;
21501;SDS011;27639;48.674;9.242;2024-03-06T03:21:51;6.97;;;5.47;;
21501;SDS011;27639;48.674;9.242;2024-03-06T03:24:16;7.22;;;5.30;;
21501;SDS011;27639;48.674;9.242;2024-03-06T03:26:45;7.07;;;5.15;;
21501;SDS011;27639;48.674;9.242;2024-03-06T03:29:10;8.10;;;5.40;;
21501;SDS011;27639;48.674;9.242;2024-03-06T03:31:36;7.07;;;5.10;;
21501;SDS011;27639;48.674;9.242;2024-03-06T03:34:03;6.97;;;5.60;;
21501;SDS011;27639;48.674;9.242;2024-03-06T03:36:30;7.22;;;5.10;;
21501;SDS011;27639;48.674;9.242;2024-03-06T03:38:55;8.27;;;5.22;;
21501;SDS011;27639;48.674;9.242;2024-03-06T03:41:21;8.57;;;6.07;;
21501;SDS011;27639;48.674;9.242;2024-03-06T03:43:46;9.15;;;5.95;;
21501;SDS011;27639;48.674;9.242;2024-03-06T03:46:12;7.07;;;5.65;;
21501;SDS011;27639;48.674;9.242;2024-03-06T03:48:39;8.82;;;5.78;;
21501;SDS011;27639;48.674;9.242;2024-03-06T03:51:04;7.65;;;5.57;;
21501;SDS011;27639;48.674;9.242;2024-03-06T03:53:32;9.68;;;5.57;;
21501;SDS011;27639;48.674;9.242;2024-03-06T03:55:58;7.28;;;5.68;;
21501;SDS011;27639;48.674;9.242;2024-03-06T03:58:24;7.55;;;5.63;;
21501;SDS011;27639;48.674;9.242;2024-03-06T04:00:50;6.43;;;4.80;;
21501;SDS011;27639;48.674;9.242;2024-03-06T04:03:18;6.20;;;4.75;;
21501;SDS011;27639;48.674;9.242;2024-03-06T04:05:45;8.27;;;4.88;;
21501;SDS011;27639;48.674;9.242;2024-03-06T04:08:14;6.80;;;4.70;;
21501;SDS011;27639;48.674;9.242;2024-03-06T04:10:41;7.15;;;5.03;;
21501;SDS011;27639;48.674;9.242;2024-03-06T04:13:10;7.38;;;4.55;;
21501;SDS011;27639;48.674;9.242;2024-03-06T04:15:36;6.68;;;4.78;;
21501;SDS011;27639;48.674;9.242;2024-03-06T04:18:01;5.45;;;4.10;;
21501;SDS011;27639;48.674;9.242;2024-03-06T04:20:27;6.82;;;4.90;;
21501;SDS011;27639;48.674;9.242;2024-03-06T04:22:52;5.55;;;3.97;;
21501;SDS011;27639;48.674;9.242;2024-03-06T04:25:18;7.43;;;4.45;;
21501;SDS011;27639;48.674;9.242;2024-03-06T04:27:43;6.60;;;4.97;;
21501;SDS011;27639;48.674;9.242;2024-03-06T04:30:09;6.10;;;4.47;;
21501;SDS011;27639;48.674;9.242;2024-03-06T04:32:35;7.55;;;5.00;;
21501;SDS011;27639;48.674;9.242;2024-03-06T04:35:01;7.97;;;4.50;;
21501;SDS011;27639;48.674;9.242;2024-03-06T04:37:26;6.50;;;4.50;;
21501;SDS011;27639;48.674;9.242;2024-03-06T04:39:54;7.97;;;4.70;;
21501;SDS011;27639;48.674;9.242;2024-03-06T04:42:19;6.43;;;4.53;;
21501;SDS011;27639;48.674;9.242;2024-03-06T04:44:45;7.28;;;4.85;;
21501;SDS011;27639;48.674;9.242;2024-03-06T04:47:11;8.10;;;4.50;;
21501;SDS011;27639;48.674;9.242;2024-03-06T04:49:36;6.22;;;4.00;;
21501;SDS011;27639;48.674;9.242;2024-03-06T04:52:02;7.10;;;4.30;;
21501;SDS011;27639;48.674;9.242;2024-03-06T04:54:28;6.00;;;4.07;;
21501;SDS011;27639;48.674;9.242;2024-03-06T04:56:54;5.97;;;4.00;;
21501;SDS011;27639;48.674;9.242;2024-03-06T04:59:20;8.27;;;4.22;;
21501;SDS011;27639;48.674;9.242;2024-03-06T05:01:46;5.60;;;3.80;;
21501;SDS011;27639;48.674;9.242;2024-03-06T05:04:11;6.63;;;3.60;;
21501;SDS011;27639;48.674;9.242;2024-03-06T05:06:37;6.43;;;3.63;;
21501;SDS011;27639;48.674;9.242;2024-03-06T05:09:03;6.68;;;4.10;;
21501;SDS011;27639;48.674;9.242;2024-03-06T05:11:29;6.20;;;3.90;;
21501;SDS011;27639;48.674;9.242;2024-03-06T05:13:55;6.88;;;3.80;;
21501;SDS011;27639;48.674;9.242;2024-03-06T05:16:22;6.70;;;3.78;;
21501;SDS011;27639;48.674;9.242;2024-03-06T05:18:49;6.55;;;4.07;;
21501;SDS011;27639;48.674;9.242;2024-03-06T05:21:14;6.25;;;4.00;;
21501;SDS011;27639;48.674;9.242;2024-03-06T05:23:40;6.90;;;3.92;;
21501;SDS011;27639;48.674;9.242;2024-03-06T05:26:06;5.53;;;3.50;;
21501;SDS011;27639;48.674;9.242;2024-03-06T05:28:32;6.40;;;3.60;;
21501;SDS011;27639;48.674;9.242;2024-03-06T05:30:58;6.35;;;3.70;;
21501;SDS011;27639;48.674;9.242;2024-03-06T05:33:25;6.45;;;3.90;;
21501;SDS011;27639;48.674;9.242;2024-03-06T05:35:53;6.32;;;3.80;;
21501;SDS011;27639;48.674;9.242;2024-03-06T05:38:19;6.18;;;3.70;;
21501;SDS011;27639;48.674;9.242;2024-03-06T05:40:44;6.95;;;3.90;;
21501;SDS011;27639;48.674;9.242;2024-03-06T05:43:10;7.53;;;4.00;;
21501;SDS011;27639;48.674;9.242;2024-03-06T05:45:36;7.05;;;3.83;;
21501;SDS011;27639;48.674;9.242;2024-03-06T05:48:01;7.25;;;4.32;;
21501;SDS011;27639;48.674;9.242;2024-03-06T05:50:29;6.72;;;3.70;;
21501;SDS011;27639;48.674;9.242;2024-03-06T05:52:55;6.15;;;3.60;;
21501;SDS011;27639;48.674;9.242;2024-03-06T05:55:22;8.05;;;4.30;;
21501;SDS011;27639;48.674;9.242;2024-03-06T05:57:48;5.90;;;4.20;;
21501;SDS011;27639;48.674;9.242;2024-03-06T06:00:14;7.82;;;4.20;;
21501;SDS011;27639;48.674;9.242;2024-03-06T06:02:43;8.27;;;4.40;;
21501;SDS011;27639;48.674;9.242;2024-03-06T06:05:10;10.60;;;4.55;;
21501;SDS011;27639;48.674;9.242;2024-03-06T06:07:36;7.28;;;4.57;;
21501;SDS011;27639;48.674;9.242;2024-03-06T06:10:03;8.75;;;4.82;;
21501;SDS011;27639;48.674;9.242;2024-03-06T06:12:33;7.22;;;4.68;;
21501;SDS011;27639;48.674;9.242;2024-03-06T06:15:00;7.20;;;4.78;;
21501;SDS011;27639;48.674;9.242;2024-03-06T06:17:25;8.65;;;4.75;;
21501;SDS011;27639;48.674;9.242;2024-03-06T06:19:51;8.05;;;4.40;;
21501;SDS011;27639;48.674;9.242;2024-03-06T06:22:16;7.55;;;4.50;;
21501;SDS011;27639;48.674;9.242;2024-03-06T06:24:42;9.52;;;5.25;;
21501;SDS011;27639;48.674;9.242;2024-03-06T06:27:08;7.63;;;4.90;;
21501;SDS011;27639;48.674;9.242;2024-03-06T06:29:33;9.15;;;4.65;;
21501;SDS011;27639;48.674;9.242;2024-03-06T06:31:59;7.15;;;4.40;;
21501;SDS011;27639;48.674;9.242;2024-03-06T06:34:24;8.20;;;4.45;;
21501;SDS011;27639;48.674;9.242;2024-03-06T06:36:52;8.98;;;4.93;;
21501;SDS011;27639;48.674;9.242;2024-03-06T06:39:18;9.77;;;4.85;;
21501;SDS011;27639;48.674;9.242;2024-03-06T06:41:44;8.52;;;4.90;;
21501;SDS011;27639;48.674;9.242;2024-03-06T06:44:09;7.72;;;4.72;;
21501;SDS011;27639;48.674;9.242;2024-03-06T06:46:35;9.00;;;5.05;;
21501;SDS011;27639;48.674;9.242;2024-03-06T06:49:01;9.70;;;4.90;;
21501;SDS011;27639;48.674;9.242;2024-03-06T06:51:26;8.35;;;4.95;;
21501;SDS011;27639;48.674;9.242;2024-03-06T06:53:52;9.18;;;5.10;;
21501;SDS011;27639;48.674;9.242;2024-03-06T06:56:19;9.68;;;4.97;;
21501;SDS011;27639;48.674;9.242;2024-03-06T06:58:47;7.50;;;4.95;;
21501;SDS011;27639;48.674;9.242;2024-03-06T07:01:13;9.15;;;5.00;;
21501;SDS011;27639;48.674;9.242;2024-03-06T07:03:41;6.82;;;4.65;;
21501;SDS011;27639;48.674;9.242;2024-03-06T07:06:07;8.43;;;4.45;;
21501;SDS011;27639;48.674;9.242;2024-03-06T07:08:33;9.32;;;5.10;;
21501;SDS011;27639;48.674;9.242;2024-03-06T07:10:59;8.68;;;5.38;;
21501;SDS011;27639;48.674;9.242;2024-03-06T07:13:24;7.63;;;4.88;;
21501;SDS011;27639;48.674;9.242;2024-03-06T07:15:50;9.48;;;5.22;;
21501;SDS011;27639;48.674;9.242;2024-03-06T07:18:16;8.80;;;5.38;;
21501;SDS011;27639;48.674;9.242;2024-03-06T07:20:41;10.80;;;5.07;;
21501;SDS011;27639;48.674;9.242;2024-03-06T07:23:07;10.20;;;5.10;;
21501;SDS011;27639;48.674;9.242;2024-03-06T07:25:32;9.45;;;5.50;;
21501;SDS011;27639;48.674;9.242;2024-03-06T07:27:58;9.93;;;5.13;;
21501;SDS011;27639;48.674;9.242;2024-03-06T07:30:23;8.35;;;5.65;;
21501;SDS011;27639;48.674;9.242;2024-03-06T07:32:49;8.27;;;4.90;;
21501;SDS011;27639;48.674;9.242;2024-03-06T07:35:15;8.48;;;5.05;;
21501;SDS011;27639;48.674;9.242;2024-03-06T07:37:40;9.55;;;5.22;;
21501;SDS011;27639;48.674;9.242;2024-03-06T07:40:09;10.18;;;4.90;;
21501;SDS011;27639;48.674;9.242;2024-03-06T07:42:35;7.53;;;4.68;;
21501;SDS011;27639;48.674;9.242;2024-03-06T07:45:00;12.20;;;5.13;;
21501;SDS011;27639;48.674;9.242;2024-03-06T07:47:26;7.25;;;4.95;;
21501;SDS011;27639;48.674;9.242;2024-03-06T07:49:52;9.05;;;4.88;;
21501;SDS011;27639;48.674;9.242;2024-03-06T07:52:17;7.63;;;5.55;;
21501;SDS011;27639;48.674;9.242;2024-03-06T07:54:43;8.05;;;5.40;;
21501;SDS011;27639;48.674;9.242;2024-03-06T07:57:08;8.50;;;5.60;;
21501;SDS011;27639;48.674;9.242;2024-03-06T07:59:34;8.65;;;6.15;;
21501;SDS011;27639;48.674;9.242;2024-03-06T08:02:00;9.98;;;6.13;;
21501;SDS011;27639;48.674;9.242;2024-03-06T08:04:26;9.18;;;6.22;;
21501;SDS011;27639;48.674;9.242;2024-03-06T08:06:52;9.45;;;6.53;;
21501;SDS011;27639;48.674;9.242;2024-03-06T08:09:17;10.63;;;7.15;;
21501;SDS011;27639;48.674;9.242;2024-03-06T08:11:44;10.27;;;7.32;;
21501;SDS011;27639;48.674;9.242;2024-03-06T08:14:10;9.18;;;6.32;;
21501;SDS011;27639;48.674;9.242;2024-03-06T08:16:36;10.85;;;6.53;;
21501;SDS011;27639;48.674;9.242;2024-03-06T08:19:02;8.48;;;5.90;;
21501;SDS011;27639;48.674;9.242;2024-03-06T08:21:28;8.93;;;6.05;;
21501;SDS011;27639;48.674;9.242;2024-03-06T08:23:54;8.93;;;6.03;;
21501;SDS011;27639;48.674;9.242;2024-03-06T08:26:19;8.48;;;6.13;;
21501;SDS011;27639;48.674;9.242;2024-03-06T08:28:45;10.77;;;6.25;;
21501;SDS011;27639;48.674;9.242;2024-03-06T08:31:10;9.48;;;6.30;;
21501;SDS011;27639;48.674;9.242;2024-03-06T08:33:36;10.82;;;6.78;;
21501;SDS011;27639;48.674;9.242;2024-03-06T08:36:02;9.10;;;7.35;;
21501;SDS011;27639;48.674;9.242;2024-03-06T08:38:28;12.10;;;7.53;;
21501;SDS011;27639;48.674;9.242;2024-03-06T08:40:54;9.23;;;7.03;;
21501;SDS011;27639;48.674;9.242;2024-03-06T08:43:19;11.00;;;7.68;;
21501;SDS011;27639;48.674;9.242;2024-03-06T08:45:45;9.20;;;7.38;;
21501;SDS011;27639;48.674;9.242;2024-03-06T08:48:11;10.45;;;7.03;;
21501;SDS011;27639;48.674;9.242;2024-03-06T08:50:36;9.27;;;6.68;;
21501;SDS011;27639;48.674;9.242;2024-03-06T08:53:03;8.73;;;6.72;;
21501;SDS011;27639;48.674;9.242;2024-03-06T08:55:29;9.55;;;6.35;;
21501;SDS011;27639;48.674;9.242;2024-03-06T08:57:54;9.25;;;6.20;;
21501;SDS011;27639;48.674;9.242;2024-03-06T09:00:20;7.55;;;5.75;;
21501;SDS011;27639;48.674;9.242;2024-03-06T09:02:46;8.02;;;5.82;;
21501;SDS011;27639;48.674;9.242;2024-03-06T09:05:12;8.63;;;5.80;;
21501;SDS011;27639;48.674;9.242;2024-03-06T09:07:38;8.15;;;5.50;;
21501;SDS011;27639;48.674;9.242;2024-03-06T09:12:40;8.82;;;5.72;;
21501;SDS011;27639;48.674;9.242;2024-03-06T09:15:07;7.78;;;5.75;;
21501;SDS011;27639;48.674;9.242;2024-03-06T09:17:33;8.68;;;6.18;;
21501;SDS011;27639;48.674;9.242;2024-03-06T09:19:59;7.60;;;5.53;;
21501;SDS011;27639;48.674;9.242;2024-03-06T09:22:34;8.38;;;5.95;;
21501;SDS011;27639;48.674;9.242;2024-03-06T09:25:01;9.95;;;6.25;;
21501;SDS011;27639;48.674;9.242;2024-03-06T09:27:26;7.93;;;5.60;;
21501;SDS011;27639;48.674;9.242;2024-03-06T09:29:52;9.30;;;6.20;;
21501;SDS011;27639;48.674;9.242;2024-03-06T09:32:18;9.73;;;6.07;;
21501;SDS011;27639;48.674;9.242;2024-03-06T09:34:44;9.52;;;6.32;;
21501;SDS011;27639;48.674;9.242;2024-03-06T09:37:09;10.57;;;6.53;;
21501;SDS011;27639;48.674;9.242;2024-03-06T09:39:35;9.38;;;5.88;;
21501;SDS011;27639;48.674;9.242;2024-03-06T09:42:01;8.77;;;6.90;;
21501;SDS011;27639;48.674;9.242;2024-03-06T09:44:27;9.85;;;6.53;;
21501;SDS011;27639;48.674;9.242;2024-03-06T09:46:53;9.43;;;6.43;;
21501;SDS011;27639;48.674;9.242;2024-03-06T09:49:21;9.45;;;6.82;;
21501;SDS011;27639;48.674;9.242;2024-03-06T09:51:48;9.15;;;6.55;;
21501;SDS011;27639;48.674;9.242;2024-03-06T09:54:18;10.40;;;6.70;;
21501;SDS011;27639;48.674;9.242;2024-03-06T09:56:45;8.32;;;6.20;;
21501;SDS011;27639;48.674;9.242;2024-03-06T09:59:13;9.70;;;7.05;;
21501;SDS011;27639;48.674;9.242;2024-03-06T10:01:45;9.93;;;6.82;;
21501;SDS011;27639;48.674;9.242;2024-03-06T10:04:27;8.88;;;6.68;;
21501;SDS011;27639;48.674;9.242;2024-03-06T10:06:54;9.20;;;7.38;;
21501;SDS011;27639;48.674;9.242;2024-03-06T10:09:24;12.75;;;7.82;;
21501;SDS011;27639;48.674;9.242;2024-03-06T10:11:50;9.98;;;7.50;;
21501;SDS011;27639;48.674;9.242;2024-03-06T10:14:21;11.35;;;7.60;;
21501;SDS011;27639;48.674;9.242;2024-03-06T10:16:51;11.93;;;7.25;;
21501;SDS011;27639;48.674;9.242;2024-03-06T10:19:18;11.13;;;7.22;;
21501;SDS011;27639;48.674;9.242;2024-03-06T10:21:44;11.40;;;6.95;;
21501;SDS011;27639;48.674;9.242;2024-03-06T10:24:34;9.25;;;6.97;;
21501;SDS011;27639;48.674;9.242;2024-03-06T10:26:59;8.98;;;6.30;;
21501;SDS011;27639;48.674;9.242;2024-03-06T10:29:26;9.98;;;6.75;;
21501;SDS011;27639;48.674;9.242;2024-03-06T10:31:53;13.43;;;7.90;;
21501;SDS011;27639;48.674;9.242;2024-03-06T10:34:20;11.25;;;8.02;;
21501;SDS011;27639;48.674;9.242;2024-03-06T10:36:57;9.93;;;7.88;;
21501;SDS011;27639;48.674;9.242;2024-03-06T10:39:23;11.27;;;7.63;;
21501;SDS011;27639;48.674;9.242;2024-03-06T10:41:51;12.05;;;8.35;;
21501;SDS011;27639;48.674;9.242;2024-03-06T10:44:22;12.23;;;8.23;;
21501;SDS011;27639;48.674;9.242;2024-03-06T10:47:05;11.05;;;8.07;;
21501;SDS011;27639;48.674;9.242;2024-03-06T10:49:34;12.55;;;8.23;;
21501;SDS011;27639;48.674;9.242;2024-03-06T10:52:02;13.82;;;8.80;;
21501;SDS011;27639;48.674;9.242;2024-03-06T10:54:32;11.48;;;7.93;;
21501;SDS011;27639;48.674;9.242;2024-03-06T10:57:00;13.43;;;9.38;;
21501;SDS011;27639;48.674;9.242;2024-03-06T10:59:26;12.23;;;8.65;;
21501;SDS011;27639;48.674;9.242;2024-03-06T11:01:53;10.88;;;8.43;;
21501;SDS011;27639;48.674;9.242;2024-03-06T11:04:25;14.18;;;8.55;;
21501;SDS011;27639;48.674;9.242;2024-03-06T11:06:56;12.95;;;9.23;;
21501;SDS011;27639;48.674;9.242;2024-03-06T11:09:23;12.93;;;9.25;;
21501;SDS011;27639;48.674;9.242;2024-03-06T11:11:49;13.95;;;9.18;;
21501;SDS011;27639;48.674;9.242;2024-03-06T11:14:16;11.98;;;8.07;;
21501;SDS011;27639;48.674;9.242;2024-03-06T11:17:02;12.93;;;8.80;;
21501;SDS011;27639;48.674;9.242;2024-03-06T11:19:32;12.05;;;9.23;;
21501;SDS011;27639;48.674;9.242;2024-03-06T11:22:17;13.63;;;9.40;;
21501;SDS011;27639;48.674;9.242;2024-03-06T11:24:42;12.10;;;9.30;;
21501;SDS011;27639;48.674;9.242;2024-03-06T11:27:08;15.25;;;9.95;;
21501;SDS011;27639;48.674;9.242;2024-03-06T11:32:36;16.00;;;10.70;;
21501;SDS011;27639;48.674;9.242;2024-03-06T11:35:03;13.90;;;10.85;;
21501;SDS011;27639;48.674;9.242;2024-03-06T11:37:33;13.18;;;10.68;;
21501;SDS011;27639;48.674;9.242;2024-03-06T11:39:59;14.23;;;10.70;;
21501;SDS011;27639;48.674;9.242;2024-03-06T11:42:33;14.38;;;10.90;;
21501;SDS011;27639;48.674;9.242;2024-03-06T11:45:13;13.73;;;11.02;;
21501;SDS011;27639;48.674;9.242;2024-03-06T11:48:00;15.00;;;11.50;;
21501;SDS011;27639;48.674;9.242;2024-03-06T11:50:27;14.07;;;10.95;;
21501;SDS011;27639;48.674;9.242;2024-03-06T11:52:56;14.52;;;10.13;;
21501;SDS011;27639;48.674;9.242;2024-03-06T11:55:22;14.32;;;11.30;;
21501;SDS011;27639;48.674;9.242;2024-03-06T11:57:50;14.15;;;11.50;;
21501;SDS011;27639;48.674;9.242;2024-03-06T12:00:16;14.65;;;11.73;;
21501;SDS011;27639;48.674;9.242;2024-03-06T12:02:42;15.18;;;11.27;;
21501;SDS011;27639;48.674;9.242;2024-03-06T12:05:08;13.90;;;10.93;;
21501;SDS011;27639;48.674;9.242;2024-03-06T12:07:44;14.60;;;11.15;;
21501;SDS011;27639;48.674;9.242;2024-03-06T12:10:14;13.80;;;10.77;;
21501;SDS011;27639;48.674;9.242;2024-03-06T12:12:41;13.52;;;11.07;;
21501;SDS011;27639;48.674;9.242;2024-03-06T12:15:09;13.68;;;10.75;;
21501;SDS011;27639;48.674;9.242;2024-03-06T12:17:43;15.27;;;11.27;;
21501;SDS011;27639;48.674;9.242;2024-03-06T12:20:13;15.00;;;10.57;;
21501;SDS011;27639;48.674;9.242;2024-03-06T12:22:50;15.20;;;11.50;;
21501;SDS011;27639;48.674;9.242;2024-03-06T12:25:21;16.02;;;12.35;;
21501;SDS011;27639;48.674;9.242;2024-03-06T12:27:51;15.65;;;11.63;;
21501;SDS011;27639;48.674;9.242;2024-03-06T12:30:18;15.02;;;11.00;;
21501;SDS011;27639;48.674;9.242;2024-03-06T12:33:01;15.75;;;11.63;;
21501;SDS011;27639;48.674;9.242;2024-03-06T12:35:30;15.40;;;11.90;;
21501;SDS011;27639;48.674;9.242;2024-03-06T12:37:57;16.35;;;11.98;;
21501;SDS011;27639;48.674;9.242;2024-03-06T12:40:23;15.15;;;11.60;;
21501;SDS011;27639;48.674;9.242;2024-03-06T12:42:49;18.58;;;13.27;;
21501;SDS011;27639;48.674;9.242;2024-03-06T12:45:17;16.92;;;12.40;;
21501;SDS011;27639;48.674;9.242;2024-03-06T12:47:43;17.13;;;13.18;;
21501;SDS011;27639;48.674;9.242;2024-03-06T12:50:10;17.33;;;12.27;;
21501;SDS011;27639;48.674;9.242;2024-03-06T12:52:37;15.23;;;12.30;;
21501;SDS011;27639;48.674;9.242;2024-03-06T12:55:03;18.58;;;12.35;;
21501;SDS011;27639;48.674;9.242;2024-03-06T12:57:31;16.65;;;12.35;;
21501;SDS011;27639;48.674;9.242;2024-03-06T12:59:57;16.35;;;12.35;;
21501;SDS011;27639;48.674;9.242;2024-03-06T13:02:23;17.50;;;13.23;;
21501;SDS011;27639;48.674;9.242;2024-03-06T13:04:49;16.55;;;12.73;;
21501;SDS011;27639;48.674;9.242;2024-03-06T13:07:15;18.48;;;13.73;;
21501;SDS011;27639;48.674;9.242;2024-03-06T13:09:41;17.13;;;13.55;;
21501;SDS011;27639;48.674;9.242;2024-03-06T13:12:07;15.95;;;12.55;;
21501;SDS011;27639;48.674;9.242;2024-03-06T13:14:33;18.08;;;13.23;;
21501;SDS011;27639;48.674;9.242;2024-03-06T13:16:59;17.00;;;13.13;;
21501;SDS011;27639;48.674;9.242;2024-03-06T13:19:25;16.63;;;12.82;;
21501;SDS011;27639;48.674;9.242;2024-03-06T13:21:51;18.33;;;13.75;;
21501;SDS011;27639;48.674;9.242;2024-03-06T13:24:17;16.98;;;13.32;;
21501;SDS011;27639;48.674;9.242;2024-03-06T13:26:44;17.73;;;13.18;;
21501;SDS011;27639;48.674;9.242;2024-03-06T13:29:13;19.25;;;14.05;;
21501;SDS011;27639;48.674;9.242;2024-03-06T13:31:38;16.65;;;13.18;;
21501;SDS011;27639;48.674;9.242;2024-03-06T13:34:04;18.20;;;13.90;;
21501;SDS011;27639;48.674;9.242;2024-03-06T13:36:30;17.65;;;13.57;;
21501;SDS011;27639;48.674;9.242;2024-03-06T13:38:56;18.40;;;14.38;;
21501;SDS011;27639;48.674;9.242;2024-03-06T13:41:22;20.80;;;14.73;;
21501;SDS011;27639;48.674;9.242;2024-03-06T13:43:47;18.63;;;13.98;;
21501;SDS011;27639;48.674;9.242;2024-03-06T13:46:13;18.33;;;15.10;;
21501;SDS011;27639;48.674;9.242;2024-03-06T13:48:39;17.63;;;13.02;;
21501;SDS011;27639;48.674;9.242;2024-03-06T13:51:05;19.60;;;15.05;;
21501;SDS011;27639;48.674;9.242;2024-03-06T13:53:31;20.20;;;15.27;;
21501;SDS011;27639;48.674;9.242;2024-03-06T13:55:56;19.00;;;15.27;;
21501;SDS011;27639;48.674;9.242;2024-03-06T13:58:22;18.98;;;14.80;;
21501;SDS011;27639;48.674;9.242;2024-03-06T14:00:48;20.15;;;14.73;;
21501;SDS011;27639;48.674;9.242;2024-03-06T14:03:14;18.75;;;14.20;;
21501;SDS011;27639;48.674;9.242;2024-03-06T14:05:39;18.65;;;13.75;;
21501;SDS011;27639;48.674;9.242;2024-03-06T14:08:05;19.23;;;14.52;;
21501;SDS011;27639;48.674;9.242;2024-03-06T14:10:32;18.90;;;14.05;;
21501;SDS011;27639;48.674;9.242;2024-03-06T14:13:01;16.77;;;13.32;;
21501;SDS011;27639;48.674;9.242;2024-03-06T14:15:27;17.80;;;13.45;;
21501;SDS011;27639;48.674;9.242;2024-03-06T14:17:52;19.60;;;14.35;;
21501;SDS011;27639;48.674;9.242;2024-03-06T14:20:19;17.73;;;13.50;;
21501;SDS011;27639;48.674;9.242;2024-03-06T14:22:45;18.05;;;13.93;;
21501;SDS011;27639;48.674;9.242;2024-03-06T14:25:11;17.67;;;14.27;;
21501;SDS011;27639;48.674;9.242;2024-03-06T14:27:37;19.77;;;14.38;;
21501;SDS011;27639;48.674;9.242;2024-03-06T14:30:03;18.17;;;14.20;;
21501;SDS011;27639;48.674;9.242;2024-03-06T14:32:29;16.88;;;13.13;;
21501;SDS011;27639;48.674;9.242;2024-03-06T14:34:55;17.90;;;13.43;;
21501;SDS011;27639;48.674;9.242;2024-03-06T14:37:20;17.20;;;13.52;;
21501;SDS011;27639;48.674;9.242;2024-03-06T14:39:46;18.23;;;13.65;;
21501;SDS011;27639;48.674;9.242;2024-03-06T14:42:11;17.88;;;13.57;;
21501;SDS011;27639;48.674;9.242;2024-03-06T14:44:37;20.13;;;14.43;;